Time;durP1;ratioP1;P1;durP2;ratioP2;P2;SDS_P1;SDS_P2;PMS_P1;PMS_P2;Temp;Humidity;BMP_temperature;BMP_pressure;BME280_temperature;BME280_humidity;BME280_pressure;Samples;Min_cycle;Max_cycle;Signal;HPM_P1;HPM_P2
2021/03/07 00:01:57;;;;;;;;;;;;;;;0.22;82.56;100218.34;5049570;28;20015;-77
2021/03/07 00:04:23;;;;;;;;;;;;;;;0.17;82.65;100207.22;5028006;28;19920;-76
2021/03/07 00:06:48;;;;;;;;;;;;;;;0.09;82.75;100209.53;5030874;28;19920;-78
2021/03/07 00:09:13;;;;;;;;;;;;;;;0.09;83.40;100204.47;5013666;28;19928;-77
2021/03/07 00:11:39;;;;;;;;;;;;;;;0.33;82.65;100206.84;5032689;28;20441;-77
2021/03/07 00:14:04;;;;;;;;;;;;;;;0.48;82.44;100218.22;5032091;28;19920;-77
2021/03/07 00:16:30;;;;;;;;;;;;;;;0.28;82.52;100210.06;5048392;28;20379;-78
2021/03/07 00:18:55;;;;;;;;;;;;;;;0.20;82.32;100207.31;5029954;28;19920;-76
2021/03/07 00:21:20;;;;;;;;;;;;;;;0.05;83.12;100206.88;5050136;28;19924;-78
2021/03/07 00:23:46;;;;;;;;;;;;;;;-0.11;83.76;100208.94;5049246;28;19920;-78
2021/03/07 00:26:11;;;;;;;;;;;;;;;-0.29;85.05;100205.84;5048861;28;20020;-78
2021/03/07 00:28:36;;;;;;;;;;;;;;;-0.39;85.41;100203.81;5014971;28;20003;-76
2021/03/07 00:31:02;;;;;;;;;;;;;;;-0.54;86.08;100205.06;5031078;28;19924;-77
2021/03/07 00:33:28;;;;;;;;;;;;;;;-0.61;86.35;100205.69;5012620;28;20000;-78
2021/03/07 00:35:53;;;;;;;;;;;;;;;-0.59;86.83;100205.72;5050542;28;20412;-76
2021/03/07 00:38:18;;;;;;;;;;;;;;;-0.70;87.57;100207.91;5047593;28;19948;-77
2021/03/07 00:40:44;;;;;;;;;;;;;;;-0.66;87.40;100204.69;5048693;28;19943;-75
2021/03/07 00:43:09;;;;;;;;;;;;;;;-0.70;87.84;100202.84;5048762;28;19920;-77
2021/03/07 00:45:35;;;;;;;;;;;;;;;-0.74;88.26;100206.09;5048192;28;20019;-77
2021/03/07 00:48:00;;;;;;;;;;;;;;;-0.64;87.65;100197.97;5050714;28;19963;-77
2021/03/07 00:50:26;;;;;;;;;;;;;;;-0.78;88.64;100197.53;5033492;28;20370;-77
2021/03/07 00:52:51;;;;;;;;;;;;;;;-0.78;88.81;100209.31;5051446;28;20389;-77
2021/03/07 00:55:17;;;;;;;;;;;;;;;-0.78;88.88;100210.16;5036224;28;19952;-77
2021/03/07 00:57:42;;;;;;;;;;;;;;;-0.82;88.66;100197.38;5051764;28;19970;-77
2021/03/07 01:00:11;;;;;;;;;;;;;;;-0.60;88.54;100193.88;5053454;28;19920;-77
2021/03/07 01:02:37;;;;;;;;;;;;;;;-0.80;88.91;100195.75;5035167;28;19925;-78
2021/03/07 01:05:03;;;;;;;;;;;;;;;-0.69;89.01;100194.44;5052886;28;19931;-77
2021/03/07 01:07:28;;;;;;;;;;;;;;;-0.60;88.79;100191.34;5029424;28;19931;-78
2021/03/07 01:09:53;;;;;;;;;;;;;;;-0.79;89.02;100193.28;5052172;28;20378;-77
2021/03/07 01:12:19;;;;;;;;;;;;;;;-0.77;89.52;100185.75;5035771;28;19923;-77
2021/03/07 01:14:44;;;;;;;;;;;;;;;-1.04;90.20;100194.16;5034961;28;19916;-75
2021/03/07 01:17:09;;;;;;;;;;;;;;;-0.64;89.82;100180.25;5035282;28;19920;-78
2021/03/07 01:19:35;;;;;;;;;;;;;;;-0.49;88.16;100177.38;5054034;28;20015;-76
2021/03/07 01:22:01;;;;;;;;;;;;;;;-0.82;88.98;100185.63;5027119;28;22186;-78
2021/03/07 01:24:27;;;;;;;;;;;;;;;-1.01;90.22;100185.78;5014908;28;19921;-78
2021/03/07 01:26:52;;;;;;;;;;;;;;;-0.73;89.07;100177.44;4998397;28;19917;-78
2021/03/07 01:29:18;;;;;;;;;;;;;;;-0.91;89.76;100183.63;5018452;28;19921;-77
2021/03/07 01:31:43;;;;;;;;;;;;;;;-0.82;89.47;100177.13;5000422;28;19920;-78
2021/03/07 01:34:08;;;;;;;;;;;;;;;-1.06;90.00;100173.00;5003932;28;19925;-77
2021/03/07 01:36:34;;;;;;;;;;;;;;;-1.47;91.42;100177.50;5016278;28;19936;-77
2021/03/07 01:38:59;;;;;;;;;;;;;;;-1.29;91.12;100172.22;5018479;28;20352;-79
2021/03/07 01:41:25;;;;;;;;;;;;;;;-1.47;91.88;100165.72;5034918;28;19927;-77
2021/03/07 01:43:50;;;;;;;;;;;;;;;-1.36;91.49;100158.50;5034251;28;20293;-77
2021/03/07 01:46:17;;;;;;;;;;;;;;;-1.40;91.43;100153.31;5018690;28;19948;-77
2021/03/07 01:48:43;;;;;;;;;;;;;;;-1.30;91.50;100158.75;4999974;28;19992;-77
2021/03/07 01:51:08;;;;;;;;;;;;;;;-1.35;91.41;100157.69;5009098;28;20015;-78
2021/03/07 01:53:33;;;;;;;;;;;;;;;-1.16;92.24;100150.75;5009367;28;20374;-78
2021/03/07 01:55:59;;;;;;;;;;;;;;;-0.29;88.89;100151.00;5019038;28;19920;-77
2021/03/07 01:58:25;;;;;;;;;;;;;;;-1.40;90.25;100159.22;5035536;28;20443;-77
2021/03/07 02:00:51;;;;;;;;;;;;;;;-1.22;88.55;100153.06;5016434;28;19925;-78
2021/03/07 02:03:17;;;;;;;;;;;;;;;-0.79;89.68;100146.91;5018816;28;19913;-76
2021/03/07 02:05:42;;;;;;;;;;;;;;;-0.59;86.29;100143.34;4991912;28;20295;-78
2021/03/07 02:08:08;;;;;;;;;;;;;;;-0.60;87.86;100143.28;5008353;28;19921;-78
2021/03/07 02:10:35;;;;;;;;;;;;;;;-0.80;88.60;100140.13;5014311;28;19928;-78
2021/03/07 02:13:02;;;;;;;;;;;;;;;-0.40;85.11;100141.38;5000671;28;19962;-78
2021/03/07 02:15:28;;;;;;;;;;;;;;;-0.07;84.52;100132.25;5007473;28;19952;-77
2021/03/07 02:17:54;;;;;;;;;;;;;;;-0.38;84.20;100130.47;5016750;28;19987;-79
2021/03/07 02:20:20;;;;;;;;;;;;;;;0.03;83.54;100133.38;5016375;28;19979;-78
2021/03/07 02:23:15;;;;;;;;;;;;;;;-0.31;84.37;100132.38;5051133;28;20286;-78
2021/03/07 02:25:40;;;;;;;;;;;;;;;0.07;83.37;100126.72;5038286;28;20010;-79
2021/03/07 02:28:07;;;;;;;;;;;;;;;0.09;82.49;100125.06;5050140;28;20007;-79
2021/03/07 02:30:32;;;;;;;;;;;;;;;-0.08;82.91;100117.00;5026670;28;19921;-79
2021/03/07 02:33:13;;;;;;;;;;;;;;;-0.14;82.77;100120.22;5035730;28;19932;-78
2021/03/07 02:35:40;;;;;;;;;;;;;;;-0.88;85.21;100120.50;5037183;28;19934;-79
2021/03/07 02:38:06;;;;;;;;;;;;;;;-0.70;85.88;100115.19;5034613;28;21617;-78
2021/03/07 02:40:32;;;;;;;;;;;;;;;-0.78;85.82;100113.22;5053470;28;19916;-76
2021/03/07 02:42:58;;;;;;;;;;;;;;;-0.65;85.59;100107.72;5035658;28;19917;-78
2021/03/07 02:45:23;;;;;;;;;;;;;;;-0.57;84.64;100102.91;5050904;28;19920;-78
2021/03/07 02:47:49;;;;;;;;;;;;;;;-0.62;85.04;100107.81;5034900;28;19921;-78
2021/03/07 02:50:21;;;;;;;;;;;;;;;-0.59;85.05;100094.41;5053191;28;20854;-80
2021/03/07 02:52:47;;;;;;;;;;;;;;;-0.75;85.24;100096.47;4995727;28;19913;-79
2021/03/07 02:55:13;;;;;;;;;;;;;;;-0.83;85.86;100099.56;5050718;28;19928;-78
2021/03/07 02:57:38;;;;;;;;;;;;;;;-0.75;85.14;100098.13;5049865;28;19925;-80
2021/03/07 03:00:05;;;;;;;;;;;;;;;-0.79;85.59;100101.38;5036101;28;19920;-79
2021/03/07 03:02:31;;;;;;;;;;;;;;;-0.98;86.62;100094.88;5053204;28;19916;-80
2021/03/07 03:04:57;;;;;;;;;;;;;;;-1.19;88.19;100095.88;5054405;28;19931;-80
2021/03/07 03:07:22;;;;;;;;;;;;;;;-1.10;87.53;100097.88;5037530;28;19921;-78
2021/03/07 03:09:48;;;;;;;;;;;;;;;-1.22;87.85;100093.28;5038729;28;20007;-79
2021/03/07 03:12:13;;;;;;;;;;;;;;;-1.44;88.48;100093.38;5052590;28;19942;-79
2021/03/07 03:14:38;;;;;;;;;;;;;;;-1.41;88.74;100089.28;5034882;28;19963;-78
2021/03/07 03:17:04;;;;;;;;;;;;;;;-1.25;88.43;100080.56;5035834;28;19924;-79
2021/03/07 03:19:29;;;;;;;;;;;;;;;-1.39;88.91;100086.78;5036450;28;19920;-78
2021/03/07 03:21:55;;;;;;;;;;;;;;;-1.48;89.82;100080.63;5032906;28;19935;-78
2021/03/07 03:24:20;;;;;;;;;;;;;;;-1.21;88.26;100087.41;5033691;28;19920;-78
2021/03/07 03:26:46;;;;;;;;;;;;;;;-1.40;88.34;100083.41;5038263;28;19931;-79
2021/03/07 03:29:11;;;;;;;;;;;;;;;-1.61;89.08;100088.59;5052319;28;19932;-80
2021/03/07 03:31:36;;;;;;;;;;;;;;;-1.48;89.06;100084.84;5033864;28;19927;-79
2021/03/07 03:34:06;;;;;;;;;;;;;;;-1.48;88.93;100082.31;5023098;28;19931;-79
2021/03/07 03:36:31;;;;;;;;;;;;;;;-1.63;89.33;100079.25;5035686;28;20011;-79
2021/03/07 03:39:04;;;;;;;;;;;;;;;-1.55;90.07;100076.19;5037169;28;19999;-79
2021/03/07 03:41:30;;;;;;;;;;;;;;;-1.57;88.68;100076.94;5027225;28;20285;-78
2021/03/07 03:43:57;;;;;;;;;;;;;;;-1.61;89.37;100073.44;5053268;28;19916;-79
2021/03/07 03:46:22;;;;;;;;;;;;;;;-1.34;88.58;100076.03;5037165;28;20423;-79
2021/03/07 03:48:51;;;;;;;;;;;;;;;-1.40;88.02;100075.84;5034910;28;19920;-79
2021/03/07 03:51:17;;;;;;;;;;;;;;;-1.24;87.70;100081.41;5034595;28;19916;-80
2021/03/07 03:53:42;;;;;;;;;;;;;;;-1.17;87.98;100069.00;5023809;28;19927;-78
2021/03/07 03:56:08;;;;;;;;;;;;;;;-1.32;88.72;100074.44;5020128;28;20317;-78
2021/03/07 03:58:40;;;;;;;;;;;;;;;-1.45;88.47;100071.44;5034417;28;19966;-79
2021/03/07 04:01:05;;;;;;;;;;;;;;;-1.52;90.35;100068.72;5033549;28;19917;-78
2021/03/07 04:03:31;;;;;;;;;;;;;;;-1.63;90.32;100076.72;5008420;28;19920;-79
2021/03/07 04:05:56;;;;;;;;;;;;;;;-1.45;90.30;100067.25;5033711;28;20310;-78
2021/03/07 04:08:22;;;;;;;;;;;;;;;-1.40;89.69;100073.31;5032717;28;19924;-79
2021/03/07 04:10:47;;;;;;;;;;;;;;;-1.47;90.18;100068.88;5023509;28;20449;-77
2021/03/07 04:13:28;;;;;;;;;;;;;;;-1.65;90.48;100063.19;5027886;28;19917;-78
2021/03/07 04:15:54;;;;;;;;;;;;;;;-1.87;90.61;100069.16;5035212;28;20321;-79
2021/03/07 04:18:20;;;;;;;;;;;;;;;-1.56;90.48;100063.50;5052088;28;19967;-79
2021/03/07 04:20:46;;;;;;;;;;;;;;;-1.64;90.50;100055.69;5033036;28;20027;-78
2021/03/07 04:23:11;;;;;;;;;;;;;;;-1.37;89.53;100060.78;5015166;28;20019;-79
2021/03/07 04:25:37;;;;;;;;;;;;;;;-1.47;90.27;100058.75;4989136;28;19928;-79
2021/03/07 04:28:03;;;;;;;;;;;;;;;-1.43;89.39;100057.19;5005321;28;19951;-79
2021/03/07 04:30:28;;;;;;;;;;;;;;;-1.41;89.51;100043.81;4989251;28;19921;-79
2021/03/07 04:32:54;;;;;;;;;;;;;;;-1.48;89.44;100054.53;5005401;28;19978;-79
2021/03/07 04:35:19;;;;;;;;;;;;;;;-1.64;89.33;100045.56;5013429;28;19975;-78
2021/03/07 04:37:45;;;;;;;;;;;;;;;-1.76;89.73;100046.00;5005289;28;19967;-79
2021/03/07 04:40:10;;;;;;;;;;;;;;;-1.83;90.22;100041.53;5014067;28;19939;-78
2021/03/07 04:42:36;;;;;;;;;;;;;;;-1.60;89.70;100044.84;4997875;28;19960;-79
2021/03/07 04:45:02;;;;;;;;;;;;;;;-1.40;89.12;100035.41;4998653;28;19964;-78
2021/03/07 04:47:28;;;;;;;;;;;;;;;-1.75;89.42;100035.09;5013892;28;19925;-77
2021/03/07 04:49:53;;;;;;;;;;;;;;;-1.93;91.17;100037.00;5032579;28;20333;-78
2021/03/07 04:52:19;;;;;;;;;;;;;;;-1.89;91.05;100041.34;5001709;28;20358;-79
2021/03/07 04:54:44;;;;;;;;;;;;;;;-1.93;90.69;100034.47;5014329;28;19917;-78
2021/03/07 04:57:10;;;;;;;;;;;;;;;-1.87;90.09;100037.22;4995597;28;19967;-78
2021/03/07 04:59:35;;;;;;;;;;;;;;;-2.02;90.41;100041.72;5014086;28;19923;-79
2021/03/07 05:02:01;;;;;;;;;;;;;;;-1.81;90.32;100029.84;4989251;28;19913;-78
2021/03/07 05:04:26;;;;;;;;;;;;;;;-1.87;90.17;100032.16;5013173;28;19987;-78
2021/03/07 05:06:52;;;;;;;;;;;;;;;-2.04;91.07;100034.09;4996495;28;20358;-77
2021/03/07 05:09:17;;;;;;;;;;;;;;;-2.17;91.31;100032.78;4997836;28;19929;-77
2021/03/07 05:11:42;;;;;;;;;;;;;;;-2.29;91.23;100032.34;5014222;28;20077;-77
2021/03/07 05:14:08;;;;;;;;;;;;;;;-2.24;91.44;100035.03;5016515;28;19967;-78
2021/03/07 05:16:33;;;;;;;;;;;;;;;-2.19;91.55;100034.41;5015626;28;19921;-77
2021/03/07 05:18:59;;;;;;;;;;;;;;;-2.00;90.53;100032.53;5032613;28;19978;-79
2021/03/07 05:21:25;;;;;;;;;;;;;;;-1.94;90.04;100035.25;5019145;28;19928;-78
2021/03/07 05:23:50;;;;;;;;;;;;;;;-1.93;89.65;100025.22;5035045;28;19928;-77
2021/03/07 05:26:16;;;;;;;;;;;;;;;-2.01;90.59;100029.13;5035613;28;19920;-77
2021/03/07 05:28:42;;;;;;;;;;;;;;;-2.28;90.93;100029.03;5024638;28;20443;-78
2021/03/07 05:31:07;;;;;;;;;;;;;;;-2.02;89.79;100022.38;5034404;28;20317;-78
2021/03/07 05:33:33;;;;;;;;;;;;;;;-1.97;89.11;100030.13;5034893;28;19967;-78
2021/03/07 05:35:58;;;;;;;;;;;;;;;-1.86;89.30;100018.72;5034181;28;19928;-79
2021/03/07 05:38:24;;;;;;;;;;;;;;;-1.74;88.72;100018.28;5037165;28;19916;-79
2021/03/07 05:40:49;;;;;;;;;;;;;;;-1.92;88.73;100015.97;5037807;28;19920;-77
2021/03/07 05:43:14;;;;;;;;;;;;;;;-2.22;89.52;100026.72;5039138;28;20328;-78
2021/03/07 05:45:40;;;;;;;;;;;;;;;-2.04;89.92;100018.94;5038923;28;19920;-78
2021/03/07 05:48:05;;;;;;;;;;;;;;;-2.15;90.84;100021.09;5023547;28;19931;-79
2021/03/07 05:50:31;;;;;;;;;;;;;;;-2.08;90.29;100026.34;5039556;28;19921;-78
2021/03/07 05:52:57;;;;;;;;;;;;;;;-2.28;90.93;100029.03;5040366;28;19944;-78
2021/03/07 05:55:23;;;;;;;;;;;;;;;-2.15;90.27;100021.09;5036740;28;19931;-78
2021/03/07 05:57:48;;;;;;;;;;;;;;;-2.39;91.04;100022.75;5035249;28;19916;-78
2021/03/07 06:00:15;;;;;;;;;;;;;;;-2.28;91.07;100024.00;5025657;28;19920;-79
2021/03/07 06:02:40;;;;;;;;;;;;;;;-2.14;90.53;100022.81;5022322;28;20002;-77
2021/03/07 06:05:06;;;;;;;;;;;;;;;-2.13;90.12;100019.47;5038775;28;20023;-79
2021/03/07 06:07:31;;;;;;;;;;;;;;;-2.45;91.40;100020.84;5054386;28;20595;-79
2021/03/07 06:10:16;;;;;;;;;;;;;;;-2.33;90.52;100017.91;5035524;28;20531;-78
2021/03/07 06:12:41;;;;;;;;;;;;;;;-2.05;89.95;100016.34;5052829;28;19924;-79
2021/03/07 06:15:07;;;;;;;;;;;;;;;-2.16;90.12;100019.38;5014313;28;19931;-78
2021/03/07 06:17:40;;;;;;;;;;;;;;;-2.12;89.47;100016.16;5035431;28;19916;-79
2021/03/07 06:20:08;;;;;;;;;;;;;;;-2.16;89.79;100014.31;5035815;28;20347;-78
2021/03/07 06:22:34;;;;;;;;;;;;;;;-2.12;89.92;100016.16;5033662;28;19924;-79
2021/03/07 06:25:00;;;;;;;;;;;;;;;-2.13;89.84;100009.38;5018621;28;19917;-79
2021/03/07 06:27:25;;;;;;;;;;;;;;;-2.27;90.26;100008.03;5021036;28;20329;-79
2021/03/07 06:29:54;;;;;;;;;;;;;;;-2.35;90.86;100007.78;5031512;28;19959;-78
2021/03/07 06:32:19;;;;;;;;;;;;;;;-2.04;90.24;99997.91;5051458;28;19960;-78
2021/03/07 06:34:45;;;;;;;;;;;;;;;-2.15;89.46;100002.56;5016854;28;19960;-79
2021/03/07 06:37:10;;;;;;;;;;;;;;;-1.86;89.90;100002.72;5025205;28;19912;-76
2021/03/07 06:39:36;;;;;;;;;;;;;;;-1.96;89.81;100006.56;5034655;28;20447;-77
2021/03/07 06:42:02;;;;;;;;;;;;;;;-1.88;90.04;100004.34;5016735;28;19931;-79
2021/03/07 06:44:27;;;;;;;;;;;;;;;-2.05;90.48;100011.31;5015912;28;19916;-78
2021/03/07 06:46:53;;;;;;;;;;;;;;;-1.93;90.92;100014.28;5015869;28;20416;-79
2021/03/07 06:49:25;;;;;;;;;;;;;;;-2.03;91.30;100009.69;5033642;28;19917;-79
2021/03/07 06:51:51;;;;;;;;;;;;;;;-1.88;91.29;100004.34;5033945;28;20297;-78
2021/03/07 06:54:17;;;;;;;;;;;;;;;-1.87;91.48;99994.31;5031375;28;20389;-77
2021/03/07 06:56:43;;;;;;;;;;;;;;;-1.75;90.75;100002.28;5034916;28;19922;-78
2021/03/07 06:59:13;;;;;;;;;;;;;;;-1.67;90.57;100006.72;5051095;28;20298;-78
2021/03/07 07:01:39;;;;;;;;;;;;;;;-1.63;90.61;100000.97;5034022;28;19916;-78
2021/03/07 07:04:04;;;;;;;;;;;;;;;-1.88;90.95;99997.63;5035868;28;19917;-78
2021/03/07 07:06:31;;;;;;;;;;;;;;;-1.53;90.57;99995.38;5035471;28;19920;-79
2021/03/07 07:08:56;;;;;;;;;;;;;;;-1.44;90.22;99993.16;5035847;28;19955;-78
2021/03/07 07:11:22;;;;;;;;;;;;;;;-1.31;90.17;99995.28;5027002;28;20358;-78
2021/03/07 07:13:48;;;;;;;;;;;;;;;-1.10;89.57;99994.22;5026525;28;19916;-78
2021/03/07 07:16:13;;;;;;;;;;;;;;;-0.94;89.04;99995.56;5032934;28;20420;-77
2021/03/07 07:18:40;;;;;;;;;;;;;;;-1.06;89.38;99996.03;5035920;28;19917;-78
2021/03/07 07:21:15;;;;;;;;;;;;;;;-1.13;89.94;99996.66;5032544;28;19927;-78
2021/03/07 07:23:41;;;;;;;;;;;;;;;-1.03;89.04;99995.28;5034370;28;19932;-78
2021/03/07 07:26:06;;;;;;;;;;;;;;;-0.94;89.23;100001.47;5027424;28;21129;-78
2021/03/07 07:28:32;;;;;;;;;;;;;;;-0.80;89.05;100003.56;5049214;28;20015;-77
2021/03/07 07:31:16;;;;;;;;;;;;;;;-0.77;88.69;100003.66;5034879;28;19970;-78
2021/03/07 07:33:44;;;;;;;;;;;;;;;-0.59;88.33;99999.13;5052477;28;20241;-78
2021/03/07 07:36:11;;;;;;;;;;;;;;;-0.48;88.51;99997.78;5049258;28;20271;-78
2021/03/07 07:38:37;;;;;;;;;;;;;;;-0.24;88.87;99997.59;5033030;28;19929;-78
2021/03/07 07:41:02;;;;;;;;;;;;;;;-0.10;87.66;99999.63;5049915;28;20026;-78
2021/03/07 07:43:27;;;;;;;;;;;;;;;0.12;87.70;99993.47;5007481;28;19917;-78
2021/03/07 07:46:13;;;;;;;;;;;;;;;0.30;87.41;99985.50;5034812;28;20023;-78
2021/03/07 07:48:38;;;;;;;;;;;;;;;0.51;86.96;99987.69;5047833;28;20370;-78
2021/03/07 07:51:22;;;;;;;;;;;;;;;0.64;86.83;99989.72;5032854;28;19959;-77
2021/03/07 07:53:48;;;;;;;;;;;;;;;0.49;87.16;99986.81;5050229;28;19917;-77
2021/03/07 07:56:32;;;;;;;;;;;;;;;0.77;87.30;99991.69;5051416;28;19919;-79
2021/03/07 07:58:57;;;;;;;;;;;;;;;0.64;87.67;99997.31;5048021;28;19920;-78
2021/03/07 08:01:42;;;;;;;;;;;;;;;0.70;87.87;99992.38;5050316;28;19920;-78
2021/03/07 08:04:28;;;;;;;;;;;;;;;0.46;87.20;99996.84;5049230;28;19916;-79
2021/03/07 08:06:53;;;;;;;;;;;;;;;0.49;87.36;99987.66;5032315;28;19959;-79
2021/03/07 08:09:35;;;;;;;;;;;;;;;0.67;86.96;99983.84;5049106;28;19963;-80
2021/03/07 08:12:21;;;;;;;;;;;;;;;0.83;86.61;99983.38;5047677;28;20023;-80
2021/03/07 08:14:46;;;;;;;;;;;;;;;0.83;85.30;99979.16;5051279;28;19939;-81
2021/03/07 08:17:31;;;;;;;;;;;;;;;0.88;85.17;99980.97;5033221;28;19948;-79
2021/03/07 08:19:56;;;;;;;;;;;;;;;1.19;84.92;99978.28;5050331;28;20374;-80
2021/03/07 08:22:22;;;;;;;;;;;;;;;1.43;83.95;99972.00;5051718;28;19980;-79
2021/03/07 08:24:54;;;;;;;;;;;;;;;1.50;83.99;99968.75;5024555;28;19927;-78
2021/03/07 08:27:35;;;;;;;;;;;;;;;1.15;83.61;99961.28;5050389;28;19927;-79
2021/03/07 08:30:00;;;;;;;;;;;;;;;2.05;83.36;99954.56;5050439;28;19927;-79
2021/03/07 08:32:26;;;;;;;;;;;;;;;2.27;81.75;99954.94;5049419;28;19917;-79
2021/03/07 08:34:51;;;;;;;;;;;;;;;2.28;83.13;99959.19;5046725;28;19921;-80
2021/03/07 08:37:17;;;;;;;;;;;;;;;3.33;81.57;99949.72;5048885;28;19920;-78
2021/03/07 08:39:43;;;;;;;;;;;;;;;3.24;81.19;99959.78;5032902;28;19979;-77
2021/03/07 08:42:08;;;;;;;;;;;;;;;3.68;80.55;99954.38;5050116;28;20390;-77
2021/03/07 08:44:33;;;;;;;;;;;;;;;3.02;81.62;99957.78;5024985;28;19920;-78
2021/03/07 08:46:59;;;;;;;;;;;;;;;3.56;81.21;99954.25;5033185;28;20016;-79
2021/03/07 08:49:25;;;;;;;;;;;;;;;4.12;81.73;99953.13;5049719;28;19929;-78
2021/03/07 08:51:56;;;;;;;;;;;;;;;3.41;81.01;99954.06;5050563;28;19928;-79
2021/03/07 08:54:22;;;;;;;;;;;;;;;3.61;82.06;99950.03;5047660;28;19916;-78
2021/03/07 08:56:51;;;;;;;;;;;;;;;3.77;83.29;99939.19;5034269;28;19917;-79
2021/03/07 08:59:17;;;;;;;;;;;;;;;3.75;82.54;99947.66;5007573;28;20310;-79
2021/03/07 09:01:42;;;;;;;;;;;;;;;3.80;81.22;99951.09;5006713;28;19931;-78
2021/03/07 09:04:10;;;;;;;;;;;;;;;4.27;81.34;99939.66;5031750;28;20062;-78
2021/03/07 09:06:37;;;;;;;;;;;;;;;4.74;81.00;99939.16;5024430;28;20370;-78
2021/03/07 09:09:02;;;;;;;;;;;;;;;3.82;80.52;99944.31;5023091;28;19928;-78
2021/03/07 09:11:28;;;;;;;;;;;;;;;3.61;84.80;99939.84;5049401;28;19925;-78
2021/03/07 09:13:53;;;;;;;;;;;;;;;3.82;83.25;99935.84;5052257;28;19969;-78
2021/03/07 09:16:18;;;;;;;;;;;;;;;3.91;80.77;99938.47;5035279;28;19925;-79
2021/03/07 09:18:44;;;;;;;;;;;;;;;4.23;80.74;99937.94;5051049;28;21243;-79
2021/03/07 09:21:10;;;;;;;;;;;;;;;3.76;81.83;99939.16;5035737;28;20016;-78
2021/03/07 09:23:39;;;;;;;;;;;;;;;4.31;80.59;99941.38;5037591;28;20305;-79
2021/03/07 09:26:07;;;;;;;;;;;;;;;4.56;79.46;99932.22;5027260;28;20223;-79
2021/03/07 09:28:36;;;;;;;;;;;;;;;4.80;81.09;99939.22;5052151;28;19928;-78
2021/03/07 09:31:03;;;;;;;;;;;;;;;4.80;81.09;99940.06;5050912;28;19959;-81
2021/03/07 09:33:29;;;;;;;;;;;;;;;4.81;80.85;99936.69;5034040;28;19929;-78
2021/03/07 09:36:04;;;;;;;;;;;;;;;4.55;81.18;99933.06;5052426;28;19923;-79
2021/03/07 09:38:42;;;;;;;;;;;;;;;4.84;78.08;99930.72;5047661;28;19921;-79
2021/03/07 09:41:08;;;;;;;;;;;;;;;6.26;76.86;99916.72;5051581;28;20007;-79
2021/03/07 09:43:34;;;;;;;;;;;;;;;4.37;80.97;99926.13;5009610;28;20035;-80
2021/03/07 09:45:59;;;;;;;;;;;;;;;4.85;77.69;99927.31;5052878;28;19927;-79
2021/03/07 09:48:34;;;;;;;;;;;;;;;4.23;76.82;99935.38;5053073;28;19928;-80
2021/03/07 09:51:00;;;;;;;;;;;;;;;4.82;76.96;99927.31;5029304;28;20405;-80
2021/03/07 09:53:25;;;;;;;;;;;;;;;4.29;70.84;99920.09;5012826;28;19944;-78
2021/03/07 09:55:51;;;;;;;;;;;;;;;4.92;75.56;99921.41;5050626;28;20278;-79
2021/03/07 09:58:16;;;;;;;;;;;;;;;4.72;76.32;99925.53;5052997;28;20500;-80
2021/03/07 10:00:51;;;;;;;;;;;;;;;4.16;75.19;99922.56;5049491;28;20436;-78
2021/03/07 10:03:17;;;;;;;;;;;;;;;4.40;77.69;99924.47;5033950;28;20015;-80
2021/03/07 10:05:42;;;;;;;;;;;;;;;4.01;75.34;99924.97;5025455;28;19924;-80
2021/03/07 10:08:23;;;;;;;;;;;;;;;3.94;78.33;99923.22;5009931;28;20006;-80
2021/03/07 10:10:49;;;;;;;;;;;;;;;4.23;77.30;99920.94;5052018;28;19921;-80
2021/03/07 10:13:17;;;;;;;;;;;;;;;4.07;75.68;99919.94;5007848;28;19921;-78
2021/03/07 10:15:43;;;;;;;;;;;;;;;4.38;75.37;99926.16;5052438;28;20003;-79
2021/03/07 10:18:17;;;;;;;;;;;;;;;4.07;75.11;99919.94;5034769;28;20039;-80
2021/03/07 10:20:44;;;;;;;;;;;;;;;5.28;74.20;99914.78;5038615;28;19931;-79
2021/03/07 10:23:09;;;;;;;;;;;;;;;5.06;73.08;99918.91;5025916;28;19928;-79
2021/03/07 10:25:39;;;;;;;;;;;;;;;5.05;70.63;99921.50;5002852;28;19928;-78
2021/03/07 10:28:05;;;;;;;;;;;;;;;5.57;70.93;99914.88;5014606;28;20891;-77
2021/03/07 10:30:35;;;;;;;;;;;;;;;5.21;71.41;99915.59;4995997;28;19976;-79
2021/03/07 10:33:09;;;;;;;;;;;;;;;4.24;73.71;99916.69;5007052;28;19964;-79
2021/03/07 10:35:35;;;;;;;;;;;;;;;4.08;71.00;99921.66;5031256;28;20343;-78
2021/03/07 10:38:00;;;;;;;;;;;;;;;4.99;70.48;99915.47;5013459;28;19917;-79
2021/03/07 10:40:30;;;;;;;;;;;;;;;3.94;70.54;99924.06;4996952;28;19921;-79
2021/03/07 10:43:00;;;;;;;;;;;;;;;4.46;71.93;99918.56;5016960;28;19916;-80
2021/03/07 10:45:25;;;;;;;;;;;;;;;5.97;68.71;99914.16;4997418;28;19960;-78
2021/03/07 10:48:06;;;;;;;;;;;;;;;4.94;69.95;99918.88;4997194;28;20467;-77
2021/03/07 10:50:32;;;;;;;;;;;;;;;5.62;68.58;99909.78;5021131;28;20298;-79
2021/03/07 10:52:57;;;;;;;;;;;;;;;5.43;68.76;99912.28;5013591;28;19917;-79
2021/03/07 10:55:23;;;;;;;;;;;;;;;4.35;68.09;99918.47;5010269;28;19943;-79
2021/03/07 10:57:48;;;;;;;;;;;;;;;5.26;68.66;99915.63;5013719;28;19917;-79
2021/03/07 11:00:14;;;;;;;;;;;;;;;5.13;69.47;99924.91;5030565;28;19924;-78
2021/03/07 11:02:41;;;;;;;;;;;;;;;5.31;67.25;99907.13;4996544;28;20010;-79
2021/03/07 11:05:06;;;;;;;;;;;;;;;4.45;70.22;99909.22;5015361;28;20352;-77
2021/03/07 11:07:32;;;;;;;;;;;;;;;3.93;69.95;99911.31;5011694;28;19928;-78
2021/03/07 11:09:57;;;;;;;;;;;;;;;4.36;67.48;99911.69;5011842;28;19924;-79
2021/03/07 11:12:23;;;;;;;;;;;;;;;4.88;70.52;99912.03;5013058;28;19921;-78
2021/03/07 11:14:48;;;;;;;;;;;;;;;4.75;70.66;99915.38;5028942;28;19925;-77
2021/03/07 11:17:13;;;;;;;;;;;;;;;5.28;66.71;99904.56;5030837;28;19917;-79
2021/03/07 11:19:39;;;;;;;;;;;;;;;4.76;69.04;99906.84;4994931;28;20382;-78
2021/03/07 11:22:04;;;;;;;;;;;;;;;4.39;69.66;99912.56;5000604;28;19920;-79
2021/03/07 11:24:30;;;;;;;;;;;;;;;4.27;69.31;99916.72;5043623;28;19927;-79
2021/03/07 11:26:55;;;;;;;;;;;;;;;4.54;67.41;99914.38;5040334;28;19917;-78
2021/03/07 11:29:21;;;;;;;;;;;;;;;4.25;68.86;99908.19;5031264;28;20386;-78
2021/03/07 11:31:46;;;;;;;;;;;;;;;4.68;69.62;99903.41;4994164;28;19999;-77
2021/03/07 11:34:11;;;;;;;;;;;;;;;4.09;68.24;99908.06;5043894;28;20008;-79
2021/03/07 11:36:37;;;;;;;;;;;;;;;4.52;68.43;99893.09;5017816;28;20390;-76
2021/03/07 11:39:02;;;;;;;;;;;;;;;5.84;67.46;99888.53;5041416;28;19956;-76
2021/03/07 11:41:28;;;;;;;;;;;;;;;5.61;66.95;99880.84;5015643;28;19927;-78
2021/03/07 11:43:53;;;;;;;;;;;;;;;4.94;70.97;99896.75;5044077;28;19921;-77
2021/03/07 11:46:18;;;;;;;;;;;;;;;4.36;67.00;99897.25;5028436;28;19959;-78
2021/03/07 11:48:44;;;;;;;;;;;;;;;4.94;65.04;99885.69;5040554;28;19938;-79
2021/03/07 11:51:09;;;;;;;;;;;;;;;5.16;69.51;99882.38;5040495;28;19924;-79
2021/03/07 11:53:34;;;;;;;;;;;;;;;5.82;69.50;99874.06;5042990;28;19917;-78
2021/03/07 11:56:00;;;;;;;;;;;;;;;4.80;67.94;99885.63;5026107;28;19912;-78
2021/03/07 11:58:25;;;;;;;;;;;;;;;4.31;66.73;99885.28;5042271;28;19922;-79
2021/03/07 12:00:50;;;;;;;;;;;;;;;4.19;69.42;99879.25;5042600;28;19924;-78
2021/03/07 12:03:16;;;;;;;;;;;;;;;4.06;72.93;99882.56;5041044;28;19916;-79
2021/03/07 12:05:41;;;;;;;;;;;;;;;4.67;68.79;99887.22;5060492;28;19952;-79
2021/03/07 12:08:06;;;;;;;;;;;;;;;4.68;62.74;99876.19;5042181;28;19923;-79
2021/03/07 12:10:32;;;;;;;;;;;;;;;4.77;64.32;99877.97;5061754;28;19971;-79
2021/03/07 12:12:57;;;;;;;;;;;;;;;4.80;62.38;99872.84;5044412;28;20635;-79
2021/03/07 12:15:23;;;;;;;;;;;;;;;4.11;63.05;99870.69;5028126;28;19985;-79
2021/03/07 12:17:48;;;;;;;;;;;;;;;4.00;66.89;99871.44;5045280;28;19921;-79
2021/03/07 12:20:14;;;;;;;;;;;;;;;4.36;63.42;99863.25;5044011;28;20336;-79
2021/03/07 12:22:39;;;;;;;;;;;;;;;3.92;64.27;99863.72;5061794;28;19971;-79
2021/03/07 12:25:05;;;;;;;;;;;;;;;3.77;64.75;99860.22;5044499;28;20258;-78
2021/03/07 12:27:30;;;;;;;;;;;;;;;4.82;62.30;99854.16;5042876;28;19920;-79
2021/03/07 12:29:56;;;;;;;;;;;;;;;5.03;62.13;99844.88;5042426;28;19925;-79
2021/03/07 12:32:21;;;;;;;;;;;;;;;5.41;61.38;99841.63;5044351;28;20617;-79
2021/03/07 12:34:46;;;;;;;;;;;;;;;4.67;62.79;99845.56;5045281;28;19920;-79
2021/03/07 12:37:12;;;;;;;;;;;;;;;4.51;65.49;99837.81;5043332;28;19964;-79
2021/03/07 12:39:37;;;;;;;;;;;;;;;4.47;62.40;99833.56;5029341;28;19912;-79
2021/03/07 12:42:03;;;;;;;;;;;;;;;4.57;64.31;99829.34;5055965;28;19963;-78
2021/03/07 12:44:28;;;;;;;;;;;;;;;3.76;68.10;99829.59;5043848;28;19921;-79